Русский Кукмор

Карта отелей и гостиниц, располагающихся рядом с аэропортом Русский Кукмор :

Русский Кукмор Марий Эл 56° 40' 20.5212" N, 48° 7' 11.3412" E
Код аэродрома ИКАО
ZED9
Код аэродрома RU
ЗЕД9
Координаты
N56.67237° E048.11982°
Превышение над уровнем моря
106
Основная полоса
18/36
Курс магнитный
184/004
Длина основной ВПП
440
Ширина основной ВПП
18
Покрытие основной ВПП
Твёрдое (асфальт)
Освещение ВПП
Нет
Тип: 
Аэродром
Класс аэродрома: 
Принадлежность: 
ГА
Статус: 
Недействующий
Сайт: 
E-mail аэродрома: 
Страна: 
Россия
Регион: 
Марий Эл
Город: 
Дополнительная информация: 
Бывшая площадка АХР.

Найти трансфер

С помощью этой формы Вы можете найти трансфер из аэропорта Русский Кукмор в город, аэропорт или вокзал:

Карта места

Javascript is required to view this map.

Погода в аэропортах:

Авиационная погода в Mărculeşti International Airport

Регион: 
Погода METAR: 
LUBM 131300Z 31004KT 9999 -SN OVC013 M00/M03 Q1004 R25/CLRD65
Время наблюдения
2021-01-13T13:00:00Z
Температура C
0.0
Точка росы
-3.0
Направление ветра
310
Скорость ветра (узлы)
4
Метео видимость
6.21
Явления погоды
-SN
Условия полета
MVFR

Авиационная погода в Грозном

Регион: 
Погода METAR: 
URMG 170530Z 05004MPS 4200 -RA BR OVC011 02/01 Q1007 R26/290250 TEMPO 0500 FZFG OVC002 RMK MT OBSC OBST OBSC QFE741/0988
Время наблюдения
2021-01-17T05:30:00Z
Температура C
2.0
Точка росы
1.0
Направление ветра
50
Скорость ветра (узлы)
8
Метео видимость
2.61
Явления погоды
-RA BR
Условия полета
IFR
Аэропорт подробнее: 

Авиационная погода в Архангельске

Регион: 
Погода METAR: 
ULAA 170530Z 19001MPS 1000 R08/2000U SN VV003 M15/M17 Q1007 R08/490333 NOSIG RMK QBB090 QFE755/1006
Время наблюдения
2021-01-17T05:30:00Z
Температура C
-15.0
Точка росы
-17.0
Направление ветра
190
Скорость ветра (узлы)
2
Метео видимость
0.62
Явления погоды
SN
Условия полета
LIFR
Аэропорт подробнее: 

Авиационная погода в аэропорту Международный

Регион: 
Погода METAR: 
UKLL 170530Z 00000MPS 9999 -SN OVC028 M08/M09 Q1012 R31/450542 NOSIG
Время наблюдения
2021-01-17T05:30:00Z
Температура C
-8.0
Точка росы
-9.0
Направление ветра
0
Скорость ветра (узлы)
0
Метео видимость
6.21
Явления погоды
-SN
Условия полета
MVFR
Аэропорт подробнее: